sensor_id;sensor_type;location;lat;lon;timestamp;temperature;humidity
10042;DHT22;5061;49.068;12.058;2023-05-23T00:00:07;16.50;99.90
10042;DHT22;5061;49.068;12.058;2023-05-23T00:03:28;16.50;99.90
10042;DHT22;5061;49.068;12.058;2023-05-23T00:06:50;16.40;99.90
10042;DHT22;5061;49.068;12.058;2023-05-23T00:10:12;16.30;99.90
10042;DHT22;5061;49.068;12.058;2023-05-23T00:13:33;16.30;99.90
10042;DHT22;5061;49.068;12.058;2023-05-23T00:16:55;16.20;99.90
10042;DHT22;5061;49.068;12.058;2023-05-23T00:20:15;16.20;99.90
10042;DHT22;5061;49.068;12.058;2023-05-23T00:23:36;16.20;99.90
10042;DHT22;5061;49.068;12.058;2023-05-23T00:26:57;16.20;99.90
10042;DHT22;5061;49.068;12.058;2023-05-23T00:30:18;16.10;99.90
10042;DHT22;5061;49.068;12.058;2023-05-23T00:33:38;16.10;99.90
10042;DHT22;5061;49.068;12.058;2023-05-23T00:36:59;16.10;99.90
10042;DHT22;5061;49.068;12.058;2023-05-23T00:40:21;16.00;99.90
10042;DHT22;5061;49.068;12.058;2023-05-23T00:43:42;16.00;99.90
10042;DHT22;5061;49.068;12.058;2023-05-23T00:47:04;16.00;99.90
10042;DHT22;5061;49.068;12.058;2023-05-23T00:50:27;15.90;99.90
10042;DHT22;5061;49.068;12.058;2023-05-23T00:53:51;15.90;99.90
10042;DHT22;5061;49.068;12.058;2023-05-23T00:57:12;15.90;99.90
10042;DHT22;5061;49.068;12.058;2023-05-23T01:00:32;15.90;99.90
10042;DHT22;5061;49.068;12.058;2023-05-23T01:03:54;15.90;99.90
10042;DHT22;5061;49.068;12.058;2023-05-23T01:07:14;15.90;99.90
10042;DHT22;5061;49.068;12.058;2023-05-23T01:10:35;15.90;99.90
10042;DHT22;5061;49.068;12.058;2023-05-23T01:14:01;15.90;99.90
10042;DHT22;5061;49.068;12.058;2023-05-23T01:21:25;15.80;99.90
10042;DHT22;5061;49.068;12.058;2023-05-23T01:28:44;15.80;99.90
10042;DHT22;5061;49.068;12.058;2023-05-23T01:32:09;15.80;99.90
10042;DHT22;5061;49.068;12.058;2023-05-23T01:35:31;15.70;99.90
10042;DHT22;5061;49.068;12.058;2023-05-23T01:38:51;15.70;99.90
10042;DHT22;5061;49.068;12.058;2023-05-23T01:42:12;15.70;99.90
10042;DHT22;5061;49.068;12.058;2023-05-23T01:45:33;15.70;99.90
10042;DHT22;5061;49.068;12.058;2023-05-23T01:48:56;15.70;99.90
10042;DHT22;5061;49.068;12.058;2023-05-23T01:52:17;15.60;99.90
10042;DHT22;5061;49.068;12.058;2023-05-23T01:55:39;15.60;99.90
10042;DHT22;5061;49.068;12.058;2023-05-23T01:59:01;15.60;99.90
10042;DHT22;5061;49.068;12.058;2023-05-23T02:02:22;15.60;99.90
10042;DHT22;5061;49.068;12.058;2023-05-23T02:05:42;15.60;99.90
10042;DHT22;5061;49.068;12.058;2023-05-23T02:09:03;15.50;99.90
10042;DHT22;5061;49.068;12.058;2023-05-23T02:12:23;15.50;99.90
10042;DHT22;5061;49.068;12.058;2023-05-23T02:15:44;15.40;99.90
10042;DHT22;5061;49.068;12.058;2023-05-23T02:19:04;15.50;99.90
10042;DHT22;5061;49.068;12.058;2023-05-23T02:22:25;15.50;99.90
10042;DHT22;5061;49.068;12.058;2023-05-23T02:25:46;15.60;99.90
10042;DHT22;5061;49.068;12.058;2023-05-23T02:29:06;15.60;99.90
10042;DHT22;5061;49.068;12.058;2023-05-23T02:32:27;15.60;99.90
10042;DHT22;5061;49.068;12.058;2023-05-23T02:35:49;15.70;99.90
10042;DHT22;5061;49.068;12.058;2023-05-23T02:39:10;15.70;99.90
10042;DHT22;5061;49.068;12.058;2023-05-23T02:42:31;15.80;99.90
10042;DHT22;5061;49.068;12.058;2023-05-23T02:45:52;15.80;99.90
10042;DHT22;5061;49.068;12.058;2023-05-23T02:49:12;15.80;99.90
10042;DHT22;5061;49.068;12.058;2023-05-23T02:52:33;15.80;99.90
10042;DHT22;5061;49.068;12.058;2023-05-23T02:55:54;15.80;99.90
10042;DHT22;5061;49.068;12.058;2023-05-23T02:59:14;15.80;99.90
10042;DHT22;5061;49.068;12.058;2023-05-23T03:02:35;15.80;99.90
10042;DHT22;5061;49.068;12.058;2023-05-23T03:06:02;15.80;99.90
10042;DHT22;5061;49.068;12.058;2023-05-23T03:09:24;15.80;99.90
10042;DHT22;5061;49.068;12.058;2023-05-23T03:12:45;15.80;99.90
10042;DHT22;5061;49.068;12.058;2023-05-23T03:16:06;15.80;99.90
10042;DHT22;5061;49.068;12.058;2023-05-23T03:19:27;15.80;99.90
10042;DHT22;5061;49.068;12.058;2023-05-23T03:22:47;15.70;99.90
10042;DHT22;5061;49.068;12.058;2023-05-23T03:26:08;15.70;99.90
10042;DHT22;5061;49.068;12.058;2023-05-23T03:29:28;15.70;99.90
10042;DHT22;5061;49.068;12.058;2023-05-23T03:32:49;15.70;99.90
10042;DHT22;5061;49.068;12.058;2023-05-23T03:36:10;15.70;99.90
10042;DHT22;5061;49.068;12.058;2023-05-23T03:39:30;15.70;99.90
10042;DHT22;5061;49.068;12.058;2023-05-23T03:43:01;15.60;99.90
10042;DHT22;5061;49.068;12.058;2023-05-23T03:46:23;15.60;99.90
10042;DHT22;5061;49.068;12.058;2023-05-23T03:49:43;15.50;99.90
10042;DHT22;5061;49.068;12.058;2023-05-23T03:53:04;15.50;99.90
10042;DHT22;5061;49.068;12.058;2023-05-23T03:56:25;15.50;99.90
10042;DHT22;5061;49.068;12.058;2023-05-23T03:59:46;15.50;99.90
10042;DHT22;5061;49.068;12.058;2023-05-23T04:03:06;15.50;99.90
10042;DHT22;5061;49.068;12.058;2023-05-23T04:06:27;15.50;99.90
10042;DHT22;5061;49.068;12.058;2023-05-23T04:09:50;15.40;99.90
10042;DHT22;5061;49.068;12.058;2023-05-23T04:13:11;15.50;99.90
10042;DHT22;5061;49.068;12.058;2023-05-23T04:16:32;15.40;99.90
10042;DHT22;5061;49.068;12.058;2023-05-23T04:19:55;15.50;99.90
10042;DHT22;5061;49.068;12.058;2023-05-23T04:23:16;15.50;99.90
10042;DHT22;5061;49.068;12.058;2023-05-23T04:26:37;15.60;99.90
10042;DHT22;5061;49.068;12.058;2023-05-23T04:29:58;15.60;99.90
10042;DHT22;5061;49.068;12.058;2023-05-23T04:33:19;15.60;99.90
10042;DHT22;5061;49.068;12.058;2023-05-23T04:36:41;15.70;99.90
10042;DHT22;5061;49.068;12.058;2023-05-23T04:40:05;15.60;99.90
10042;DHT22;5061;49.068;12.058;2023-05-23T04:43:26;15.60;99.90
10042;DHT22;5061;49.068;12.058;2023-05-23T04:46:48;15.60;99.90
10042;DHT22;5061;49.068;12.058;2023-05-23T04:50:10;15.60;99.90
10042;DHT22;5061;49.068;12.058;2023-05-23T04:53:30;15.50;99.90
10042;DHT22;5061;49.068;12.058;2023-05-23T04:56:51;15.60;99.90
10042;DHT22;5061;49.068;12.058;2023-05-23T05:00:13;15.60;99.90
10042;DHT22;5061;49.068;12.058;2023-05-23T05:03:34;15.70;99.90
10042;DHT22;5061;49.068;12.058;2023-05-23T05:06:55;15.80;99.90
10042;DHT22;5061;49.068;12.058;2023-05-23T05:10:16;15.80;99.90
10042;DHT22;5061;49.068;12.058;2023-05-23T05:13:37;15.90;99.90
10042;DHT22;5061;49.068;12.058;2023-05-23T05:16:58;16.00;99.90
10042;DHT22;5061;49.068;12.058;2023-05-23T05:20:19;16.00;99.90
10042;DHT22;5061;49.068;12.058;2023-05-23T05:23:41;16.10;99.90
10042;DHT22;5061;49.068;12.058;2023-05-23T05:27:03;16.20;99.90
10042;DHT22;5061;49.068;12.058;2023-05-23T05:30:23;16.30;99.90
10042;DHT22;5061;49.068;12.058;2023-05-23T05:33:44;16.40;99.90
10042;DHT22;5061;49.068;12.058;2023-05-23T05:37:06;16.50;99.90
10042;DHT22;5061;49.068;12.058;2023-05-23T05:40:27;16.60;99.90
10042;DHT22;5061;49.068;12.058;2023-05-23T05:43:47;16.70;99.90
10042;DHT22;5061;49.068;12.058;2023-05-23T05:47:08;16.80;99.90
10042;DHT22;5061;49.068;12.058;2023-05-23T05:50:29;16.90;99.90
10042;DHT22;5061;49.068;12.058;2023-05-23T05:53:50;17.00;99.90
10042;DHT22;5061;49.068;12.058;2023-05-23T05:57:11;17.10;99.90
10042;DHT22;5061;49.068;12.058;2023-05-23T06:00:32;17.10;99.90
10042;DHT22;5061;49.068;12.058;2023-05-23T06:03:55;17.20;99.90
10042;DHT22;5061;49.068;12.058;2023-05-23T06:07:17;17.30;99.90
10042;DHT22;5061;49.068;12.058;2023-05-23T06:10:38;17.40;99.90
10042;DHT22;5061;49.068;12.058;2023-05-23T06:13:59;17.40;99.90
10042;DHT22;5061;49.068;12.058;2023-05-23T06:17:20;17.50;99.90
10042;DHT22;5061;49.068;12.058;2023-05-23T06:20:40;17.50;99.90
10042;DHT22;5061;49.068;12.058;2023-05-23T06:24:03;17.50;99.90
10042;DHT22;5061;49.068;12.058;2023-05-23T06:27:24;17.60;99.90
10042;DHT22;5061;49.068;12.058;2023-05-23T06:30:44;17.70;99.90
10042;DHT22;5061;49.068;12.058;2023-05-23T06:34:06;17.60;99.90
10042;DHT22;5061;49.068;12.058;2023-05-23T06:37:27;17.70;99.90
10042;DHT22;5061;49.068;12.058;2023-05-23T06:40:47;17.80;99.90
10042;DHT22;5061;49.068;12.058;2023-05-23T06:44:08;17.90;99.90
10042;DHT22;5061;49.068;12.058;2023-05-23T06:47:29;18.00;99.90
10042;DHT22;5061;49.068;12.058;2023-05-23T06:50:50;18.10;99.90
10042;DHT22;5061;49.068;12.058;2023-05-23T06:54:10;18.20;99.90
10042;DHT22;5061;49.068;12.058;2023-05-23T06:57:31;18.40;99.90
10042;DHT22;5061;49.068;12.058;2023-05-23T07:00:52;18.50;99.90
10042;DHT22;5061;49.068;12.058;2023-05-23T07:04:13;18.60;99.90
10042;DHT22;5061;49.068;12.058;2023-05-23T07:07:33;18.80;99.90
10042;DHT22;5061;49.068;12.058;2023-05-23T07:10:54;18.80;99.90
10042;DHT22;5061;49.068;12.058;2023-05-23T07:14:15;18.90;99.90
10042;DHT22;5061;49.068;12.058;2023-05-23T07:17:35;19.00;99.90
10042;DHT22;5061;49.068;12.058;2023-05-23T07:20:56;19.10;99.90
10042;DHT22;5061;49.068;12.058;2023-05-23T07:24:17;19.20;99.90
10042;DHT22;5061;49.068;12.058;2023-05-23T07:27:37;19.20;99.90
10042;DHT22;5061;49.068;12.058;2023-05-23T07:30:58;19.20;99.90
10042;DHT22;5061;49.068;12.058;2023-05-23T07:34:18;19.20;99.90
10042;DHT22;5061;49.068;12.058;2023-05-23T07:37:39;19.20;99.90
10042;DHT22;5061;49.068;12.058;2023-05-23T07:40:59;19.20;99.90
10042;DHT22;5061;49.068;12.058;2023-05-23T07:44:20;19.30;99.90
10042;DHT22;5061;49.068;12.058;2023-05-23T07:47:41;19.40;99.90
10042;DHT22;5061;49.068;12.058;2023-05-23T07:51:02;19.30;99.90
10042;DHT22;5061;49.068;12.058;2023-05-23T07:54:23;19.40;99.90
10042;DHT22;5061;49.068;12.058;2023-05-23T07:57:43;19.40;99.90
10042;DHT22;5061;49.068;12.058;2023-05-23T08:01:04;19.50;99.90
10042;DHT22;5061;49.068;12.058;2023-05-23T08:04:25;19.60;99.90
10042;DHT22;5061;49.068;12.058;2023-05-23T08:07:46;19.60;99.90
10042;DHT22;5061;49.068;12.058;2023-05-23T08:11:06;19.70;99.90
10042;DHT22;5061;49.068;12.058;2023-05-23T08:14:27;19.60;99.90
10042;DHT22;5061;49.068;12.058;2023-05-23T08:17:49;19.50;99.90
10042;DHT22;5061;49.068;12.058;2023-05-23T08:21:10;19.60;99.90
10042;DHT22;5061;49.068;12.058;2023-05-23T08:24:30;19.60;99.90
10042;DHT22;5061;49.068;12.058;2023-05-23T08:27:53;19.50;99.90
10042;DHT22;5061;49.068;12.058;2023-05-23T08:31:14;19.50;99.90
10042;DHT22;5061;49.068;12.058;2023-05-23T08:34:35;19.50;99.90
10042;DHT22;5061;49.068;12.058;2023-05-23T08:37:56;19.60;99.90
10042;DHT22;5061;49.068;12.058;2023-05-23T08:41:19;19.60;99.90
10042;DHT22;5061;49.068;12.058;2023-05-23T08:44:40;19.70;99.90
10042;DHT22;5061;49.068;12.058;2023-05-23T08:48:01;19.80;99.90
10042;DHT22;5061;49.068;12.058;2023-05-23T08:51:26;19.90;99.90
10042;DHT22;5061;49.068;12.058;2023-05-23T08:54:47;20.00;99.90
10042;DHT22;5061;49.068;12.058;2023-05-23T08:58:07;20.10;99.90
10042;DHT22;5061;49.068;12.058;2023-05-23T09:01:30;20.10;99.90
10042;DHT22;5061;49.068;12.058;2023-05-23T09:04:53;20.00;99.90
10042;DHT22;5061;49.068;12.058;2023-05-23T09:08:14;20.10;99.90
10042;DHT22;5061;49.068;12.058;2023-05-23T09:11:35;20.20;99.90
10042;DHT22;5061;49.068;12.058;2023-05-23T09:14:56;20.20;99.90
10042;DHT22;5061;49.068;12.058;2023-05-23T09:18:17;20.30;99.90
10042;DHT22;5061;49.068;12.058;2023-05-23T09:21:42;20.40;99.90
10042;DHT22;5061;49.068;12.058;2023-05-23T09:25:04;20.50;99.90
10042;DHT22;5061;49.068;12.058;2023-05-23T09:28:25;20.50;99.90
10042;DHT22;5061;49.068;12.058;2023-05-23T09:31:49;20.50;99.90
10042;DHT22;5061;49.068;12.058;2023-05-23T09:35:10;20.50;99.90
10042;DHT22;5061;49.068;12.058;2023-05-23T09:38:40;20.60;99.90
10042;DHT22;5061;49.068;12.058;2023-05-23T09:42:01;20.60;99.90
10042;DHT22;5061;49.068;12.058;2023-05-23T09:45:29;20.60;99.90
10042;DHT22;5061;49.068;12.058;2023-05-23T09:48:50;20.50;99.90
10042;DHT22;5061;49.068;12.058;2023-05-23T09:52:12;20.60;99.90
10042;DHT22;5061;49.068;12.058;2023-05-23T09:55:33;20.60;99.90
10042;DHT22;5061;49.068;12.058;2023-05-23T09:58:54;20.70;99.90
10042;DHT22;5061;49.068;12.058;2023-05-23T10:02:15;20.70;99.90
10042;DHT22;5061;49.068;12.058;2023-05-23T10:09:04;20.70;99.90
10042;DHT22;5061;49.068;12.058;2023-05-23T10:15:54;20.90;99.90
10042;DHT22;5061;49.068;12.058;2023-05-23T10:23:15;21.20;99.90
10042;DHT22;5061;49.068;12.058;2023-05-23T10:26:36;21.30;99.90
10042;DHT22;5061;49.068;12.058;2023-05-23T10:29:58;21.30;99.90
10042;DHT22;5061;49.068;12.058;2023-05-23T10:33:20;21.30;99.90
10042;DHT22;5061;49.068;12.058;2023-05-23T10:44:26;20.90;99.90
10042;DHT22;5061;49.068;12.058;2023-05-23T10:47:50;20.80;99.90
10042;DHT22;5061;49.068;12.058;2023-05-23T10:51:12;20.70;99.90
10042;DHT22;5061;49.068;12.058;2023-05-23T10:54:54;20.70;99.90
10042;DHT22;5061;49.068;12.058;2023-05-23T10:58:19;20.70;99.90
10042;DHT22;5061;49.068;12.058;2023-05-23T11:01:50;20.80;99.90
10042;DHT22;5061;49.068;12.058;2023-05-23T11:05:18;20.90;99.90
10042;DHT22;5061;49.068;12.058;2023-05-23T11:08:42;20.90;99.90
10042;DHT22;5061;49.068;12.058;2023-05-23T11:12:06;21.00;99.90
10042;DHT22;5061;49.068;12.058;2023-05-23T11:15:27;21.10;99.90
10042;DHT22;5061;49.068;12.058;2023-05-23T11:18:48;21.10;99.90
10042;DHT22;5061;49.068;12.058;2023-05-23T11:22:08;21.10;99.90
10042;DHT22;5061;49.068;12.058;2023-05-23T11:25:40;21.10;99.90
10042;DHT22;5061;49.068;12.058;2023-05-23T11:29:03;21.00;99.90
10042;DHT22;5061;49.068;12.058;2023-05-23T11:32:28;21.10;99.90
10042;DHT22;5061;49.068;12.058;2023-05-23T11:35:50;21.20;99.90
10042;DHT22;5061;49.068;12.058;2023-05-23T11:39:12;21.40;99.90
10042;DHT22;5061;49.068;12.058;2023-05-23T11:42:33;21.50;99.90
10042;DHT22;5061;49.068;12.058;2023-05-23T11:45:53;21.70;99.90
10042;DHT22;5061;49.068;12.058;2023-05-23T11:49:14;21.70;99.90
10042;DHT22;5061;49.068;12.058;2023-05-23T11:52:34;21.70;99.90
10042;DHT22;5061;49.068;12.058;2023-05-23T11:56:01;21.80;99.90
10042;DHT22;5061;49.068;12.058;2023-05-23T11:59:24;21.90;99.90
10042;DHT22;5061;49.068;12.058;2023-05-23T12:02:45;22.00;99.90
10042;DHT22;5061;49.068;12.058;2023-05-23T12:06:09;22.00;99.90
10042;DHT22;5061;49.068;12.058;2023-05-23T12:09:30;22.10;99.90
10042;DHT22;5061;49.068;12.058;2023-05-23T12:12:50;22.00;99.90
10042;DHT22;5061;49.068;12.058;2023-05-23T12:16:13;21.90;99.90
10042;DHT22;5061;49.068;12.058;2023-05-23T12:19:34;21.90;99.90
10042;DHT22;5061;49.068;12.058;2023-05-23T12:22:56;21.90;99.90
10042;DHT22;5061;49.068;12.058;2023-05-23T12:26:16;22.00;99.90
10042;DHT22;5061;49.068;12.058;2023-05-23T12:29:37;21.90;99.90
10042;DHT22;5061;49.068;12.058;2023-05-23T12:32:58;21.80;99.90
10042;DHT22;5061;49.068;12.058;2023-05-23T12:36:24;21.70;99.90
10042;DHT22;5061;49.068;12.058;2023-05-23T12:39:45;21.70;99.90
10042;DHT22;5061;49.068;12.058;2023-05-23T12:43:08;21.60;99.90
10042;DHT22;5061;49.068;12.058;2023-05-23T12:46:29;21.40;99.90
10042;DHT22;5061;49.068;12.058;2023-05-23T12:49:49;21.30;99.90
10042;DHT22;5061;49.068;12.058;2023-05-23T12:53:10;21.30;99.90
10042;DHT22;5061;49.068;12.058;2023-05-23T12:56:30;21.50;99.90
10042;DHT22;5061;49.068;12.058;2023-05-23T12:59:51;21.70;99.90
10042;DHT22;5061;49.068;12.058;2023-05-23T13:03:12;21.90;99.90
10042;DHT22;5061;49.068;12.058;2023-05-23T13:06:32;22.00;99.90
10042;DHT22;5061;49.068;12.058;2023-05-23T13:09:53;21.90;99.30
10042;DHT22;5061;49.068;12.058;2023-05-23T13:13:14;21.70;98.50
10042;DHT22;5061;49.068;12.058;2023-05-23T13:16:34;21.80;99.80
10042;DHT22;5061;49.068;12.058;2023-05-23T13:19:55;21.90;99.40
10042;DHT22;5061;49.068;12.058;2023-05-23T13:23:16;21.90;97.90
10042;DHT22;5061;49.068;12.058;2023-05-23T13:26:37;21.80;97.40
10042;DHT22;5061;49.068;12.058;2023-05-23T13:29:57;21.60;98.40
10042;DHT22;5061;49.068;12.058;2023-05-23T13:33:18;21.50;98.70
10042;DHT22;5061;49.068;12.058;2023-05-23T13:36:39;21.30;98.30
10042;DHT22;5061;49.068;12.058;2023-05-23T13:40:01;21.20;98.40
10042;DHT22;5061;49.068;12.058;2023-05-23T13:43:22;21.20;98.30
10042;DHT22;5061;49.068;12.058;2023-05-23T13:46:43;21.10;96.70
10042;DHT22;5061;49.068;12.058;2023-05-23T13:50:04;21.00;97.50
10042;DHT22;5061;49.068;12.058;2023-05-23T13:53:25;20.90;96.70
10042;DHT22;5061;49.068;12.058;2023-05-23T13:56:46;20.80;96.60
10042;DHT22;5061;49.068;12.058;2023-05-23T14:00:07;20.70;96.70
10042;DHT22;5061;49.068;12.058;2023-05-23T14:03:28;20.60;96.90
10042;DHT22;5061;49.068;12.058;2023-05-23T14:06:49;20.50;96.70
10042;DHT22;5061;49.068;12.058;2023-05-23T14:10:10;20.50;96.70
10042;DHT22;5061;49.068;12.058;2023-05-23T14:13:31;20.50;97.10
10042;DHT22;5061;49.068;12.058;2023-05-23T14:16:52;20.50;95.90
10042;DHT22;5061;49.068;12.058;2023-05-23T14:20:13;20.50;95.60
10042;DHT22;5061;49.068;12.058;2023-05-23T14:23:34;20.50;94.80
10042;DHT22;5061;49.068;12.058;2023-05-23T14:26:55;20.50;95.10
10042;DHT22;5061;49.068;12.058;2023-05-23T14:30:16;20.50;94.90
10042;DHT22;5061;49.068;12.058;2023-05-23T14:33:36;20.40;95.10
10042;DHT22;5061;49.068;12.058;2023-05-23T14:36:57;20.40;95.20
10042;DHT22;5061;49.068;12.058;2023-05-23T14:40:18;20.50;95.50
10042;DHT22;5061;49.068;12.058;2023-05-23T14:43:39;20.50;96.50
10042;DHT22;5061;49.068;12.058;2023-05-23T14:46:59;20.50;95.70
10042;DHT22;5061;49.068;12.058;2023-05-23T14:50:20;20.60;96.50
10042;DHT22;5061;49.068;12.058;2023-05-23T14:53:41;20.60;97.50
10042;DHT22;5061;49.068;12.058;2023-05-23T14:57:01;20.60;96.80
10042;DHT22;5061;49.068;12.058;2023-05-23T15:00:23;20.50;96.00
10042;DHT22;5061;49.068;12.058;2023-05-23T15:03:44;20.50;95.80
10042;DHT22;5061;49.068;12.058;2023-05-23T15:07:05;20.30;95.20
10042;DHT22;5061;49.068;12.058;2023-05-23T15:10:29;20.30;96.30
10042;DHT22;5061;49.068;12.058;2023-05-23T15:13:49;20.30;96.20
10042;DHT22;5061;49.068;12.058;2023-05-23T15:17:10;20.30;97.40
10042;DHT22;5061;49.068;12.058;2023-05-23T15:20:32;20.30;97.70
10042;DHT22;5061;49.068;12.058;2023-05-23T15:23:53;20.20;98.40
10042;DHT22;5061;49.068;12.058;2023-05-23T15:27:14;20.20;96.80
10042;DHT22;5061;49.068;12.058;2023-05-23T15:30:34;20.30;99.00
10042;DHT22;5061;49.068;12.058;2023-05-23T15:33:55;20.30;97.70
10042;DHT22;5061;49.068;12.058;2023-05-23T15:37:16;20.20;97.20
10042;DHT22;5061;49.068;12.058;2023-05-23T15:40:37;20.10;96.30
10042;DHT22;5061;49.068;12.058;2023-05-23T15:43:57;20.10;96.50
10042;DHT22;5061;49.068;12.058;2023-05-23T15:47:18;20.20;96.20
10042;DHT22;5061;49.068;12.058;2023-05-23T15:50:40;20.20;96.70
10042;DHT22;5061;49.068;12.058;2023-05-23T15:54:00;20.30;95.90
10042;DHT22;5061;49.068;12.058;2023-05-23T15:57:21;20.40;96.60
10042;DHT22;5061;49.068;12.058;2023-05-23T16:00:42;20.40;96.40
10042;DHT22;5061;49.068;12.058;2023-05-23T16:04:03;20.50;96.00
10042;DHT22;5061;49.068;12.058;2023-05-23T16:07:23;20.70;97.20
10042;DHT22;5061;49.068;12.058;2023-05-23T16:10:44;20.70;99.10
10042;DHT22;5061;49.068;12.058;2023-05-23T16:14:05;20.70;97.80
10042;DHT22;5061;49.068;12.058;2023-05-23T16:17:26;20.70;97.20
10042;DHT22;5061;49.068;12.058;2023-05-23T16:20:46;20.60;96.80
10042;DHT22;5061;49.068;12.058;2023-05-23T16:24:07;20.50;97.30
10042;DHT22;5061;49.068;12.058;2023-05-23T16:27:28;20.40;96.90
10042;DHT22;5061;49.068;12.058;2023-05-23T16:30:49;20.30;97.20
10042;DHT22;5061;49.068;12.058;2023-05-23T16:34:09;20.20;97.60
10042;DHT22;5061;49.068;12.058;2023-05-23T16:37:30;20.10;97.10
10042;DHT22;5061;49.068;12.058;2023-05-23T16:40:50;20.00;97.40
10042;DHT22;5061;49.068;12.058;2023-05-23T16:44:11;19.90;96.90
10042;DHT22;5061;49.068;12.058;2023-05-23T16:47:32;19.80;97.20
10042;DHT22;5061;49.068;12.058;2023-05-23T16:50:53;19.70;97.60
10042;DHT22;5061;49.068;12.058;2023-05-23T16:54:14;19.60;97.90
10042;DHT22;5061;49.068;12.058;2023-05-23T16:57:35;19.50;98.10
10042;DHT22;5061;49.068;12.058;2023-05-23T17:00:55;19.50;98.60
10042;DHT22;5061;49.068;12.058;2023-05-23T17:04:16;19.40;98.50
10042;DHT22;5061;49.068;12.058;2023-05-23T17:07:37;19.40;99.00
10042;DHT22;5061;49.068;12.058;2023-05-23T17:10:57;19.30;98.90
10042;DHT22;5061;49.068;12.058;2023-05-23T17:14:18;19.20;98.60
10042;DHT22;5061;49.068;12.058;2023-05-23T17:17:39;19.30;98.40
10042;DHT22;5061;49.068;12.058;2023-05-23T17:21:00;19.30;98.60
10042;DHT22;5061;49.068;12.058;2023-05-23T17:24:21;19.20;99.10
10042;DHT22;5061;49.068;12.058;2023-05-23T17:27:41;19.20;98.80
10042;DHT22;5061;49.068;12.058;2023-05-23T17:31:02;19.10;98.60
10042;DHT22;5061;49.068;12.058;2023-05-23T17:34:22;19.00;99.40
10042;DHT22;5061;49.068;12.058;2023-05-23T17:37:43;19.00;99.50
10042;DHT22;5061;49.068;12.058;2023-05-23T17:41:04;18.80;99.80
10042;DHT22;5061;49.068;12.058;2023-05-23T17:44:24;18.70;99.50
10042;DHT22;5061;49.068;12.058;2023-05-23T17:47:45;18.70;99.90
10042;DHT22;5061;49.068;12.058;2023-05-23T17:51:06;18.60;99.90
10042;DHT22;5061;49.068;12.058;2023-05-23T17:54:27;18.50;99.90
10042;DHT22;5061;49.068;12.058;2023-05-23T17:57:47;18.40;99.90
10042;DHT22;5061;49.068;12.058;2023-05-23T18:01:08;18.40;99.90
10042;DHT22;5061;49.068;12.058;2023-05-23T18:04:29;18.30;99.90
10042;DHT22;5061;49.068;12.058;2023-05-23T18:07:49;18.20;99.90
10042;DHT22;5061;49.068;12.058;2023-05-23T18:11:10;18.10;99.90
10042;DHT22;5061;49.068;12.058;2023-05-23T18:14:31;18.00;99.90
10042;DHT22;5061;49.068;12.058;2023-05-23T18:17:51;18.00;99.90
10042;DHT22;5061;49.068;12.058;2023-05-23T18:21:14;17.90;99.90
10042;DHT22;5061;49.068;12.058;2023-05-23T18:24:35;17.90;99.90
10042;DHT22;5061;49.068;12.058;2023-05-23T18:28:00;17.80;99.90
10042;DHT22;5061;49.068;12.058;2023-05-23T18:31:21;17.80;99.90
10042;DHT22;5061;49.068;12.058;2023-05-23T18:34:41;17.70;99.90
10042;DHT22;5061;49.068;12.058;2023-05-23T18:38:02;17.60;99.90
10042;DHT22;5061;49.068;12.058;2023-05-23T18:41:23;17.60;99.90
10042;DHT22;5061;49.068;12.058;2023-05-23T18:44:46;17.50;99.90
10042;DHT22;5061;49.068;12.058;2023-05-23T18:48:07;17.50;99.90
10042;DHT22;5061;49.068;12.058;2023-05-23T18:51:28;17.40;99.90
10042;DHT22;5061;49.068;12.058;2023-05-23T18:54:49;17.30;99.90
10042;DHT22;5061;49.068;12.058;2023-05-23T18:58:13;17.20;99.90
10042;DHT22;5061;49.068;12.058;2023-05-23T19:01:33;17.20;99.90
10042;DHT22;5061;49.068;12.058;2023-05-23T19:04:54;17.10;99.90
10042;DHT22;5061;49.068;12.058;2023-05-23T19:08:14;17.10;99.90
10042;DHT22;5061;49.068;12.058;2023-05-23T19:11:35;17.00;99.90
10042;DHT22;5061;49.068;12.058;2023-05-23T19:14:56;17.00;99.90
10042;DHT22;5061;49.068;12.058;2023-05-23T19:18:18;16.90;99.90
10042;DHT22;5061;49.068;12.058;2023-05-23T19:21:39;16.90;99.90
10042;DHT22;5061;49.068;12.058;2023-05-23T19:25:00;16.80;99.90
10042;DHT22;5061;49.068;12.058;2023-05-23T19:28:20;16.80;99.90
10042;DHT22;5061;49.068;12.058;2023-05-23T19:31:41;16.80;99.90
10042;DHT22;5061;49.068;12.058;2023-05-23T19:35:02;16.80;99.90
10042;DHT22;5061;49.068;12.058;2023-05-23T19:38:22;16.70;99.90
10042;DHT22;5061;49.068;12.058;2023-05-23T19:41:43;16.70;99.90
10042;DHT22;5061;49.068;12.058;2023-05-23T19:45:04;16.70;99.90
10042;DHT22;5061;49.068;12.058;2023-05-23T19:48:25;16.70;99.90
10042;DHT22;5061;49.068;12.058;2023-05-23T19:51:46;16.60;99.90
10042;DHT22;5061;49.068;12.058;2023-05-23T19:55:07;16.60;99.90
10042;DHT22;5061;49.068;12.058;2023-05-23T19:58:29;16.50;99.90
10042;DHT22;5061;49.068;12.058;2023-05-23T20:01:50;16.40;99.90
10042;DHT22;5061;49.068;12.058;2023-05-23T20:05:10;16.40;99.90
10042;DHT22;5061;49.068;12.058;2023-05-23T20:08:31;16.40;99.90
10042;DHT22;5061;49.068;12.058;2023-05-23T20:11:52;16.30;99.90
10042;DHT22;5061;49.068;12.058;2023-05-23T20:15:12;16.20;99.90
10042;DHT22;5061;49.068;12.058;2023-05-23T20:18:33;16.20;99.90
10042;DHT22;5061;49.068;12.058;2023-05-23T20:21:54;16.10;99.90
10042;DHT22;5061;49.068;12.058;2023-05-23T20:25:15;16.10;99.90
10042;DHT22;5061;49.068;12.058;2023-05-23T20:28:36;16.00;99.90
10042;DHT22;5061;49.068;12.058;2023-05-23T20:31:57;16.00;99.90
10042;DHT22;5061;49.068;12.058;2023-05-23T20:35:19;15.90;99.90
10042;DHT22;5061;49.068;12.058;2023-05-23T20:38:40;15.90;99.90
10042;DHT22;5061;49.068;12.058;2023-05-23T20:42:01;15.80;99.90
10042;DHT22;5061;49.068;12.058;2023-05-23T20:45:21;15.80;99.90
10042;DHT22;5061;49.068;12.058;2023-05-23T20:48:42;15.80;99.90
10042;DHT22;5061;49.068;12.058;2023-05-23T20:52:03;15.80;99.90
10042;DHT22;5061;49.068;12.058;2023-05-23T20:55:27;15.70;99.90
10042;DHT22;5061;49.068;12.058;2023-05-23T20:58:47;15.60;99.90
10042;DHT22;5061;49.068;12.058;2023-05-23T21:02:08;15.50;99.90
10042;DHT22;5061;49.068;12.058;2023-05-23T21:05:29;15.50;99.90
10042;DHT22;5061;49.068;12.058;2023-05-23T21:08:49;15.40;99.90
10042;DHT22;5061;49.068;12.058;2023-05-23T21:12:10;15.40;99.90
10042;DHT22;5061;49.068;12.058;2023-05-23T21:15:31;15.30;99.90
10042;DHT22;5061;49.068;12.058;2023-05-23T21:18:51;15.30;99.90
10042;DHT22;5061;49.068;12.058;2023-05-23T21:22:12;15.20;99.90
10042;DHT22;5061;49.068;12.058;2023-05-23T21:25:32;15.10;99.90
10042;DHT22;5061;49.068;12.058;2023-05-23T21:28:53;15.10;99.90
10042;DHT22;5061;49.068;12.058;2023-05-23T21:32:14;15.10;99.90
10042;DHT22;5061;49.068;12.058;2023-05-23T21:35:35;15.00;99.90